sensor_id;sensor_type;location;lat;lon;timestamp;temperature;humidity
52889;DHT22;41413;52.770;6.892;2024-03-02T00:00:08;7.30;99.90
52889;DHT22;41413;52.770;6.892;2024-03-02T00:02:44;7.30;99.90
52889;DHT22;41413;52.770;6.892;2024-03-02T00:05:21;7.30;99.90
52889;DHT22;41413;52.770;6.892;2024-03-02T00:07:57;7.20;99.90
52889;DHT22;41413;52.770;6.892;2024-03-02T00:10:37;7.20;99.90
52889;DHT22;41413;52.770;6.892;2024-03-02T00:13:07;7.10;99.90
52889;DHT22;41413;52.770;6.892;2024-03-02T00:15:47;7.20;99.90
52889;DHT22;41413;52.770;6.892;2024-03-02T00:18:19;7.20;99.90
52889;DHT22;41413;52.770;6.892;2024-03-02T00:20:45;7.20;99.90
52889;DHT22;41413;52.770;6.892;2024-03-02T00:23:15;7.20;99.90
52889;DHT22;41413;52.770;6.892;2024-03-02T00:25:51;7.20;99.90
52889;DHT22;41413;52.770;6.892;2024-03-02T00:28:24;7.30;99.90
52889;DHT22;41413;52.770;6.892;2024-03-02T00:30:56;7.10;99.90
52889;DHT22;41413;52.770;6.892;2024-03-02T00:33:26;7.10;99.90
52889;DHT22;41413;52.770;6.892;2024-03-02T00:35:54;7.10;99.90
52889;DHT22;41413;52.770;6.892;2024-03-02T00:38:21;7.10;99.90
52889;DHT22;41413;52.770;6.892;2024-03-02T00:40:49;7.10;99.90
52889;DHT22;41413;52.770;6.892;2024-03-02T00:46:04;7.20;99.90
52889;DHT22;41413;52.770;6.892;2024-03-02T00:48:31;7.20;99.90
52889;DHT22;41413;52.770;6.892;2024-03-02T00:51:04;7.20;99.90
52889;DHT22;41413;52.770;6.892;2024-03-02T00:53:31;7.20;99.90
52889;DHT22;41413;52.770;6.892;2024-03-02T00:56:01;7.20;99.90
52889;DHT22;41413;52.770;6.892;2024-03-02T00:58:28;7.30;99.90
52889;DHT22;41413;52.770;6.892;2024-03-02T01:00:55;7.30;99.90
52889;DHT22;41413;52.770;6.892;2024-03-02T01:03:22;7.20;99.90
52889;DHT22;41413;52.770;6.892;2024-03-02T01:05:49;7.20;99.90
52889;DHT22;41413;52.770;6.892;2024-03-02T01:08:15;7.20;99.90
52889;DHT22;41413;52.770;6.892;2024-03-02T01:10:42;7.20;99.90
52889;DHT22;41413;52.770;6.892;2024-03-02T01:13:09;7.30;99.90
52889;DHT22;41413;52.770;6.892;2024-03-02T01:15:36;7.30;99.90
52889;DHT22;41413;52.770;6.892;2024-03-02T01:18:03;7.30;99.90
52889;DHT22;41413;52.770;6.892;2024-03-02T01:20:30;7.30;99.90
52889;DHT22;41413;52.770;6.892;2024-03-02T01:22:56;7.30;99.90
52889;DHT22;41413;52.770;6.892;2024-03-02T01:25:23;7.30;99.90
52889;DHT22;41413;52.770;6.892;2024-03-02T01:27:50;7.30;99.90
52889;DHT22;41413;52.770;6.892;2024-03-02T01:30:17;7.40;99.90
52889;DHT22;41413;52.770;6.892;2024-03-02T01:32:44;7.30;99.90
52889;DHT22;41413;52.770;6.892;2024-03-02T01:35:10;7.40;99.90
52889;DHT22;41413;52.770;6.892;2024-03-02T01:37:37;7.40;99.90
52889;DHT22;41413;52.770;6.892;2024-03-02T01:40:05;7.30;99.90
52889;DHT22;41413;52.770;6.892;2024-03-02T01:42:37;7.40;99.90
52889;DHT22;41413;52.770;6.892;2024-03-02T01:45:05;7.50;99.90
52889;DHT22;41413;52.770;6.892;2024-03-02T01:47:32;7.40;99.90
52889;DHT22;41413;52.770;6.892;2024-03-02T01:49:59;7.30;99.90
52889;DHT22;41413;52.770;6.892;2024-03-02T01:52:27;7.40;99.90
52889;DHT22;41413;52.770;6.892;2024-03-02T01:54:53;7.50;99.90
52889;DHT22;41413;52.770;6.892;2024-03-02T01:57:20;7.50;99.90
52889;DHT22;41413;52.770;6.892;2024-03-02T01:59:47;7.50;99.90
52889;DHT22;41413;52.770;6.892;2024-03-02T02:02:15;7.40;99.90
52889;DHT22;41413;52.770;6.892;2024-03-02T02:04:42;7.70;99.90
52889;DHT22;41413;52.770;6.892;2024-03-02T02:07:09;7.60;99.90
52889;DHT22;41413;52.770;6.892;2024-03-02T02:09:36;7.60;99.90
52889;DHT22;41413;52.770;6.892;2024-03-02T02:12:03;7.70;99.90
52889;DHT22;41413;52.770;6.892;2024-03-02T02:14:32;7.60;99.90
52889;DHT22;41413;52.770;6.892;2024-03-02T02:17:00;7.70;99.90
52889;DHT22;41413;52.770;6.892;2024-03-02T02:19:26;7.90;99.90
52889;DHT22;41413;52.770;6.892;2024-03-02T02:21:54;7.70;99.90
52889;DHT22;41413;52.770;6.892;2024-03-02T02:24:20;7.70;99.90
52889;DHT22;41413;52.770;6.892;2024-03-02T02:26:47;7.80;99.90
52889;DHT22;41413;52.770;6.892;2024-03-02T02:29:14;7.70;99.90
52889;DHT22;41413;52.770;6.892;2024-03-02T02:31:41;7.80;99.90
52889;DHT22;41413;52.770;6.892;2024-03-02T02:34:08;7.90;99.90
52889;DHT22;41413;52.770;6.892;2024-03-02T02:36:38;7.80;99.90
52889;DHT22;41413;52.770;6.892;2024-03-02T02:39:09;7.80;99.90
52889;DHT22;41413;52.770;6.892;2024-03-02T02:41:37;7.80;99.90
52889;DHT22;41413;52.770;6.892;2024-03-02T02:44:04;7.70;99.90
52889;DHT22;41413;52.770;6.892;2024-03-02T02:46:31;7.70;99.90
52889;DHT22;41413;52.770;6.892;2024-03-02T02:48:58;7.70;99.90
52889;DHT22;41413;52.770;6.892;2024-03-02T02:51:24;7.70;99.90
52889;DHT22;41413;52.770;6.892;2024-03-02T02:53:54;7.70;99.90
52889;DHT22;41413;52.770;6.892;2024-03-02T02:56:21;7.70;99.90
52889;DHT22;41413;52.770;6.892;2024-03-02T02:58:47;7.70;99.90
52889;DHT22;41413;52.770;6.892;2024-03-02T03:01:17;7.80;99.90
52889;DHT22;41413;52.770;6.892;2024-03-02T03:03:45;7.80;99.90
52889;DHT22;41413;52.770;6.892;2024-03-02T03:06:12;7.90;99.90
52889;DHT22;41413;52.770;6.892;2024-03-02T03:08:39;7.80;99.90
52889;DHT22;41413;52.770;6.892;2024-03-02T03:11:06;7.80;99.90
52889;DHT22;41413;52.770;6.892;2024-03-02T03:13:34;7.80;99.90
52889;DHT22;41413;52.770;6.892;2024-03-02T03:16:01;7.90;99.90
52889;DHT22;41413;52.770;6.892;2024-03-02T03:18:28;7.90;99.90
52889;DHT22;41413;52.770;6.892;2024-03-02T03:20:55;8.00;99.90
52889;DHT22;41413;52.770;6.892;2024-03-02T03:23:21;8.00;99.90
52889;DHT22;41413;52.770;6.892;2024-03-02T03:25:48;8.00;99.90
52889;DHT22;41413;52.770;6.892;2024-03-02T03:28:15;8.00;99.90
52889;DHT22;41413;52.770;6.892;2024-03-02T03:30:41;8.10;99.90
52889;DHT22;41413;52.770;6.892;2024-03-02T03:33:08;8.00;99.90
52889;DHT22;41413;52.770;6.892;2024-03-02T03:35:36;8.00;99.90
52889;DHT22;41413;52.770;6.892;2024-03-02T03:38:03;8.00;99.90
52889;DHT22;41413;52.770;6.892;2024-03-02T03:40:30;8.00;99.90
52889;DHT22;41413;52.770;6.892;2024-03-02T03:42:57;8.00;99.90
52889;DHT22;41413;52.770;6.892;2024-03-02T03:45:24;8.00;99.90
52889;DHT22;41413;52.770;6.892;2024-03-02T03:47:53;7.90;99.90
52889;DHT22;41413;52.770;6.892;2024-03-02T03:50:20;7.80;99.90
52889;DHT22;41413;52.770;6.892;2024-03-02T03:52:47;7.70;99.90
52889;DHT22;41413;52.770;6.892;2024-03-02T03:55:14;7.60;99.90
52889;DHT22;41413;52.770;6.892;2024-03-02T03:57:40;7.70;99.90
52889;DHT22;41413;52.770;6.892;2024-03-02T04:00:08;7.60;99.90
52889;DHT22;41413;52.770;6.892;2024-03-02T04:02:36;7.60;99.90
52889;DHT22;41413;52.770;6.892;2024-03-02T04:05:03;7.60;99.90
52889;DHT22;41413;52.770;6.892;2024-03-02T04:07:36;7.60;99.90
52889;DHT22;41413;52.770;6.892;2024-03-02T04:10:10;7.60;99.90
52889;DHT22;41413;52.770;6.892;2024-03-02T04:12:37;7.50;99.90
52889;DHT22;41413;52.770;6.892;2024-03-02T04:15:05;7.40;99.90
52889;DHT22;41413;52.770;6.892;2024-03-02T04:17:33;7.40;99.90
52889;DHT22;41413;52.770;6.892;2024-03-02T04:20:00;7.40;99.90
52889;DHT22;41413;52.770;6.892;2024-03-02T04:22:27;7.40;99.90
52889;DHT22;41413;52.770;6.892;2024-03-02T04:24:54;7.40;99.90
52889;DHT22;41413;52.770;6.892;2024-03-02T04:27:22;7.40;99.90
52889;DHT22;41413;52.770;6.892;2024-03-02T04:29:48;7.30;99.90
52889;DHT22;41413;52.770;6.892;2024-03-02T04:32:15;7.40;99.90
52889;DHT22;41413;52.770;6.892;2024-03-02T04:34:42;7.30;99.90
52889;DHT22;41413;52.770;6.892;2024-03-02T04:37:11;7.30;99.90
52889;DHT22;41413;52.770;6.892;2024-03-02T04:39:39;7.40;99.90
52889;DHT22;41413;52.770;6.892;2024-03-02T04:42:05;7.30;99.90
52889;DHT22;41413;52.770;6.892;2024-03-02T04:44:32;7.20;99.90
52889;DHT22;41413;52.770;6.892;2024-03-02T04:46:59;7.20;99.90
52889;DHT22;41413;52.770;6.892;2024-03-02T04:49:26;7.20;99.90
52889;DHT22;41413;52.770;6.892;2024-03-02T04:51:53;7.20;99.90
52889;DHT22;41413;52.770;6.892;2024-03-02T04:54:20;7.30;99.90
52889;DHT22;41413;52.770;6.892;2024-03-02T04:56:47;7.20;99.90
52889;DHT22;41413;52.770;6.892;2024-03-02T04:59:18;7.20;99.90
52889;DHT22;41413;52.770;6.892;2024-03-02T05:01:45;7.20;99.90
52889;DHT22;41413;52.770;6.892;2024-03-02T05:04:12;7.10;99.90
52889;DHT22;41413;52.770;6.892;2024-03-02T05:06:39;7.10;99.90
52889;DHT22;41413;52.770;6.892;2024-03-02T05:09:09;7.00;99.90
52889;DHT22;41413;52.770;6.892;2024-03-02T05:11:36;7.10;99.90
52889;DHT22;41413;52.770;6.892;2024-03-02T05:14:06;7.00;99.90
52889;DHT22;41413;52.770;6.892;2024-03-02T05:16:34;7.00;99.90
52889;DHT22;41413;52.770;6.892;2024-03-02T05:19:01;6.80;99.90
52889;DHT22;41413;52.770;6.892;2024-03-02T05:21:28;6.80;99.90
52889;DHT22;41413;52.770;6.892;2024-03-02T05:23:55;6.70;99.90
52889;DHT22;41413;52.770;6.892;2024-03-02T05:26:21;6.60;99.90
52889;DHT22;41413;52.770;6.892;2024-03-02T05:28:48;6.60;99.90
52889;DHT22;41413;52.770;6.892;2024-03-02T05:31:15;6.60;99.90
52889;DHT22;41413;52.770;6.892;2024-03-02T05:33:42;6.60;99.90
52889;DHT22;41413;52.770;6.892;2024-03-02T05:36:09;6.70;99.90
52889;DHT22;41413;52.770;6.892;2024-03-02T05:38:36;6.70;99.90
52889;DHT22;41413;52.770;6.892;2024-03-02T05:41:03;6.60;99.90
52889;DHT22;41413;52.770;6.892;2024-03-02T05:43:30;6.50;99.90
52889;DHT22;41413;52.770;6.892;2024-03-02T05:45:57;6.50;99.90
52889;DHT22;41413;52.770;6.892;2024-03-02T05:48:23;6.50;99.90
52889;DHT22;41413;52.770;6.892;2024-03-02T05:50:50;6.60;99.90
52889;DHT22;41413;52.770;6.892;2024-03-02T05:53:17;6.60;99.90
52889;DHT22;41413;52.770;6.892;2024-03-02T05:55:44;6.60;99.90
52889;DHT22;41413;52.770;6.892;2024-03-02T05:58:11;6.60;99.90
52889;DHT22;41413;52.770;6.892;2024-03-02T06:00:58;6.60;99.90
52889;DHT22;41413;52.770;6.892;2024-03-02T06:03:25;6.50;99.90
52889;DHT22;41413;52.770;6.892;2024-03-02T06:05:52;6.60;99.90
52889;DHT22;41413;52.770;6.892;2024-03-02T06:08:19;6.60;99.90
52889;DHT22;41413;52.770;6.892;2024-03-02T06:10:45;6.70;99.90
52889;DHT22;41413;52.770;6.892;2024-03-02T06:13:12;6.60;99.90
52889;DHT22;41413;52.770;6.892;2024-03-02T06:15:39;6.50;99.90
52889;DHT22;41413;52.770;6.892;2024-03-02T06:18:06;6.50;99.90
52889;DHT22;41413;52.770;6.892;2024-03-02T06:20:34;6.40;99.90
52889;DHT22;41413;52.770;6.892;2024-03-02T06:23:03;6.40;99.90
52889;DHT22;41413;52.770;6.892;2024-03-02T06:25:30;6.40;99.90
52889;DHT22;41413;52.770;6.892;2024-03-02T06:27:57;6.40;99.90
52889;DHT22;41413;52.770;6.892;2024-03-02T06:30:24;6.40;99.90
52889;DHT22;41413;52.770;6.892;2024-03-02T06:32:50;6.50;99.90
52889;DHT22;41413;52.770;6.892;2024-03-02T06:35:17;6.50;99.90
52889;DHT22;41413;52.770;6.892;2024-03-02T06:37:44;6.60;99.90
52889;DHT22;41413;52.770;6.892;2024-03-02T06:40:11;6.60;99.90
52889;DHT22;41413;52.770;6.892;2024-03-02T06:42:37;6.70;99.90
52889;DHT22;41413;52.770;6.892;2024-03-02T06:45:04;6.60;99.90
52889;DHT22;41413;52.770;6.892;2024-03-02T06:47:31;6.70;99.90
52889;DHT22;41413;52.770;6.892;2024-03-02T06:49:58;6.70;99.90
52889;DHT22;41413;52.770;6.892;2024-03-02T06:52:25;6.70;99.90
52889;DHT22;41413;52.770;6.892;2024-03-02T06:54:52;6.80;99.90
52889;DHT22;41413;52.770;6.892;2024-03-02T06:57:19;6.80;99.90
52889;DHT22;41413;52.770;6.892;2024-03-02T06:59:47;6.80;99.90
52889;DHT22;41413;52.770;6.892;2024-03-02T07:02:16;6.80;99.90
52889;DHT22;41413;52.770;6.892;2024-03-02T07:04:43;6.80;99.90
52889;DHT22;41413;52.770;6.892;2024-03-02T07:07:12;6.90;99.90
52889;DHT22;41413;52.770;6.892;2024-03-02T07:09:39;6.90;99.90
52889;DHT22;41413;52.770;6.892;2024-03-02T07:12:06;6.90;99.90
52889;DHT22;41413;52.770;6.892;2024-03-02T07:14:33;7.00;99.90
52889;DHT22;41413;52.770;6.892;2024-03-02T07:17:18;6.90;99.90
52889;DHT22;41413;52.770;6.892;2024-03-02T07:19:45;6.90;99.90
52889;DHT22;41413;52.770;6.892;2024-03-02T07:22:12;6.90;99.90
52889;DHT22;41413;52.770;6.892;2024-03-02T07:24:42;6.90;99.90
52889;DHT22;41413;52.770;6.892;2024-03-02T07:27:10;7.00;99.90
52889;DHT22;41413;52.770;6.892;2024-03-02T07:29:37;6.90;99.90
52889;DHT22;41413;52.770;6.892;2024-03-02T07:32:04;7.00;99.90
52889;DHT22;41413;52.770;6.892;2024-03-02T07:34:31;7.00;99.90
52889;DHT22;41413;52.770;6.892;2024-03-02T07:36:58;7.00;99.90
52889;DHT22;41413;52.770;6.892;2024-03-02T07:39:26;7.00;99.90
52889;DHT22;41413;52.770;6.892;2024-03-02T07:41:53;7.00;99.90
52889;DHT22;41413;52.770;6.892;2024-03-02T07:44:19;7.00;99.90
52889;DHT22;41413;52.770;6.892;2024-03-02T07:46:47;7.00;99.90
52889;DHT22;41413;52.770;6.892;2024-03-02T07:49:16;7.10;99.90
52889;DHT22;41413;52.770;6.892;2024-03-02T07:51:43;7.10;99.90
52889;DHT22;41413;52.770;6.892;2024-03-02T07:54:10;7.10;99.90
52889;DHT22;41413;52.770;6.892;2024-03-02T07:56:37;7.10;99.90
52889;DHT22;41413;52.770;6.892;2024-03-02T07:59:04;7.20;99.90
52889;DHT22;41413;52.770;6.892;2024-03-02T08:01:32;7.10;99.90
52889;DHT22;41413;52.770;6.892;2024-03-02T08:04:00;7.10;99.90
52889;DHT22;41413;52.770;6.892;2024-03-02T08:06:27;7.10;99.90
52889;DHT22;41413;52.770;6.892;2024-03-02T08:08:58;7.20;99.90
52889;DHT22;41413;52.770;6.892;2024-03-02T08:11:25;7.30;99.90
52889;DHT22;41413;52.770;6.892;2024-03-02T08:13:53;7.30;99.90
52889;DHT22;41413;52.770;6.892;2024-03-02T08:16:23;7.40;99.90
52889;DHT22;41413;52.770;6.892;2024-03-02T08:18:50;7.40;99.90
52889;DHT22;41413;52.770;6.892;2024-03-02T08:21:17;7.50;99.90
52889;DHT22;41413;52.770;6.892;2024-03-02T08:23:44;7.60;99.90
52889;DHT22;41413;52.770;6.892;2024-03-02T08:26:11;7.60;99.90
52889;DHT22;41413;52.770;6.892;2024-03-02T08:28:39;7.60;99.90
52889;DHT22;41413;52.770;6.892;2024-03-02T08:31:09;7.60;99.90
52889;DHT22;41413;52.770;6.892;2024-03-02T08:33:36;7.50;99.90
52889;DHT22;41413;52.770;6.892;2024-03-02T08:36:04;7.50;99.90
52889;DHT22;41413;52.770;6.892;2024-03-02T08:38:32;7.50;99.90
52889;DHT22;41413;52.770;6.892;2024-03-02T08:40:59;7.80;99.90
52889;DHT22;41413;52.770;6.892;2024-03-02T08:43:25;8.10;99.90
52889;DHT22;41413;52.770;6.892;2024-03-02T08:45:52;8.30;99.90
52889;DHT22;41413;52.770;6.892;2024-03-02T08:48:19;9.50;99.90
52889;DHT22;41413;52.770;6.892;2024-03-02T08:50:47;10.90;99.90
52889;DHT22;41413;52.770;6.892;2024-03-02T08:53:14;12.00;99.90
52889;DHT22;41413;52.770;6.892;2024-03-02T08:55:48;13.10;99.90
52889;DHT22;41413;52.770;6.892;2024-03-02T08:58:15;13.80;99.90
52889;DHT22;41413;52.770;6.892;2024-03-02T09:00:42;13.20;99.90
52889;DHT22;41413;52.770;6.892;2024-03-02T09:03:09;13.60;99.90
52889;DHT22;41413;52.770;6.892;2024-03-02T09:05:36;13.80;99.90
52889;DHT22;41413;52.770;6.892;2024-03-02T09:08:03;13.80;99.90
52889;DHT22;41413;52.770;6.892;2024-03-02T09:10:30;12.70;99.90
52889;DHT22;41413;52.770;6.892;2024-03-02T09:12:57;12.10;99.90
52889;DHT22;41413;52.770;6.892;2024-03-02T09:15:24;11.20;99.90
52889;DHT22;41413;52.770;6.892;2024-03-02T09:17:51;10.70;99.90
52889;DHT22;41413;52.770;6.892;2024-03-02T09:20:18;10.60;99.90
52889;DHT22;41413;52.770;6.892;2024-03-02T09:22:45;10.50;99.90
52889;DHT22;41413;52.770;6.892;2024-03-02T09:25:14;10.70;99.90
52889;DHT22;41413;52.770;6.892;2024-03-02T09:27:41;11.50;99.90
52889;DHT22;41413;52.770;6.892;2024-03-02T09:30:08;12.80;99.90
52889;DHT22;41413;52.770;6.892;2024-03-02T09:32:36;13.90;99.90
52889;DHT22;41413;52.770;6.892;2024-03-02T09:35:04;14.30;99.90
52889;DHT22;41413;52.770;6.892;2024-03-02T09:37:30;13.70;99.90
52889;DHT22;41413;52.770;6.892;2024-03-02T09:39:57;13.60;99.90
52889;DHT22;41413;52.770;6.892;2024-03-02T09:42:24;13.00;99.90
52889;DHT22;41413;52.770;6.892;2024-03-02T09:44:51;12.90;99.90
52889;DHT22;41413;52.770;6.892;2024-03-02T09:47:18;13.80;99.90
52889;DHT22;41413;52.770;6.892;2024-03-02T09:49:45;14.50;99.90
52889;DHT22;41413;52.770;6.892;2024-03-02T09:52:13;14.60;99.90
52889;DHT22;41413;52.770;6.892;2024-03-02T09:54:41;14.40;99.90
52889;DHT22;41413;52.770;6.892;2024-03-02T09:57:08;12.90;99.90
52889;DHT22;41413;52.770;6.892;2024-03-02T09:59:34;13.10;99.90
52889;DHT22;41413;52.770;6.892;2024-03-02T10:02:02;13.50;99.90
52889;DHT22;41413;52.770;6.892;2024-03-02T10:04:30;14.20;99.90
52889;DHT22;41413;52.770;6.892;2024-03-02T10:07:13;14.30;99.90
52889;DHT22;41413;52.770;6.892;2024-03-02T10:09:42;14.20;99.90
52889;DHT22;41413;52.770;6.892;2024-03-02T10:12:10;14.20;99.90
52889;DHT22;41413;52.770;6.892;2024-03-02T10:14:39;14.60;99.90
52889;DHT22;41413;52.770;6.892;2024-03-02T10:17:07;14.60;99.90
52889;DHT22;41413;52.770;6.892;2024-03-02T10:19:35;14.30;99.90
52889;DHT22;41413;52.770;6.892;2024-03-02T10:22:07;14.50;99.90
52889;DHT22;41413;52.770;6.892;2024-03-02T10:24:40;14.40;99.90
52889;DHT22;41413;52.770;6.892;2024-03-02T10:27:18;14.20;99.90
52889;DHT22;41413;52.770;6.892;2024-03-02T10:29:48;14.20;99.90
52889;DHT22;41413;52.770;6.892;2024-03-02T10:32:15;13.80;99.90
52889;DHT22;41413;52.770;6.892;2024-03-02T10:34:44;14.30;99.90
52889;DHT22;41413;52.770;6.892;2024-03-02T10:37:12;15.00;99.90
52889;DHT22;41413;52.770;6.892;2024-03-02T10:39:39;14.70;99.90
52889;DHT22;41413;52.770;6.892;2024-03-02T10:42:07;15.10;99.90
52889;DHT22;41413;52.770;6.892;2024-03-02T10:44:34;14.60;99.90
52889;DHT22;41413;52.770;6.892;2024-03-02T10:47:04;15.40;99.90
52889;DHT22;41413;52.770;6.892;2024-03-02T10:49:32;16.10;99.90
52889;DHT22;41413;52.770;6.892;2024-03-02T10:51:59;15.20;99.90
52889;DHT22;41413;52.770;6.892;2024-03-02T10:54:27;15.70;99.90
52889;DHT22;41413;52.770;6.892;2024-03-02T10:56:58;15.90;99.90
52889;DHT22;41413;52.770;6.892;2024-03-02T10:59:28;16.10;99.90
52889;DHT22;41413;52.770;6.892;2024-03-02T11:02:00;15.20;99.90
52889;DHT22;41413;52.770;6.892;2024-03-02T11:04:32;15.20;99.90
52889;DHT22;41413;52.770;6.892;2024-03-02T11:07:07;14.80;99.90
52889;DHT22;41413;52.770;6.892;2024-03-02T11:09:37;14.90;99.90
52889;DHT22;41413;52.770;6.892;2024-03-02T11:14:51;14.00;99.90
52889;DHT22;41413;52.770;6.892;2024-03-02T11:17:21;13.30;99.90
52889;DHT22;41413;52.770;6.892;2024-03-02T11:19:48;13.90;99.90
52889;DHT22;41413;52.770;6.892;2024-03-02T11:22:16;14.50;99.90
52889;DHT22;41413;52.770;6.892;2024-03-02T11:24:50;14.70;99.90
52889;DHT22;41413;52.770;6.892;2024-03-02T11:32:59;13.70;99.90
52889;DHT22;41413;52.770;6.892;2024-03-02T11:35:27;14.30;99.90
52889;DHT22;41413;52.770;6.892;2024-03-02T11:37:56;15.20;99.90
52889;DHT22;41413;52.770;6.892;2024-03-02T11:40:25;15.50;99.90
52889;DHT22;41413;52.770;6.892;2024-03-02T11:42:53;14.70;99.90
52889;DHT22;41413;52.770;6.892;2024-03-02T11:45:27;14.40;99.90
52889;DHT22;41413;52.770;6.892;2024-03-02T11:47:54;13.60;99.90
52889;DHT22;41413;52.770;6.892;2024-03-02T11:50:34;13.50;99.90
52889;DHT22;41413;52.770;6.892;2024-03-02T11:53:03;13.30;99.90
52889;DHT22;41413;52.770;6.892;2024-03-02T11:55:36;13.30;99.90
52889;DHT22;41413;52.770;6.892;2024-03-02T11:58:04;13.40;99.90
52889;DHT22;41413;52.770;6.892;2024-03-02T12:00:31;13.40;99.90
52889;DHT22;41413;52.770;6.892;2024-03-02T12:03:05;13.60;99.90
52889;DHT22;41413;52.770;6.892;2024-03-02T12:05:33;13.80;99.90
52889;DHT22;41413;52.770;6.892;2024-03-02T12:08:07;13.30;99.90
52889;DHT22;41413;52.770;6.892;2024-03-02T12:10:35;13.30;99.90
52889;DHT22;41413;52.770;6.892;2024-03-02T12:13:04;13.70;99.90
52889;DHT22;41413;52.770;6.892;2024-03-02T12:15:32;13.60;99.90
52889;DHT22;41413;52.770;6.892;2024-03-02T12:18:00;13.70;99.90
52889;DHT22;41413;52.770;6.892;2024-03-02T12:20:29;13.60;99.90
52889;DHT22;41413;52.770;6.892;2024-03-02T12:22:58;13.50;99.90
52889;DHT22;41413;52.770;6.892;2024-03-02T12:25:25;13.70;99.90
52889;DHT22;41413;52.770;6.892;2024-03-02T12:27:54;13.70;99.90
52889;DHT22;41413;52.770;6.892;2024-03-02T12:30:22;13.50;99.90
52889;DHT22;41413;52.770;6.892;2024-03-02T12:32:49;13.60;99.90
52889;DHT22;41413;52.770;6.892;2024-03-02T12:35:18;13.70;99.90
52889;DHT22;41413;52.770;6.892;2024-03-02T12:37:49;13.70;99.90
52889;DHT22;41413;52.770;6.892;2024-03-02T12:40:17;13.60;99.90
52889;DHT22;41413;52.770;6.892;2024-03-02T12:42:46;13.60;99.90
52889;DHT22;41413;52.770;6.892;2024-03-02T12:45:13;13.50;99.90
52889;DHT22;41413;52.770;6.892;2024-03-02T12:47:41;13.60;99.90
52889;DHT22;41413;52.770;6.892;2024-03-02T12:50:09;13.60;99.90
52889;DHT22;41413;52.770;6.892;2024-03-02T12:52:36;13.70;99.90
52889;DHT22;41413;52.770;6.892;2024-03-02T12:55:05;13.80;99.90
52889;DHT22;41413;52.770;6.892;2024-03-02T12:57:33;13.80;99.90
52889;DHT22;41413;52.770;6.892;2024-03-02T13:00:05;13.90;99.90
52889;DHT22;41413;52.770;6.892;2024-03-02T13:02:42;13.80;99.90
52889;DHT22;41413;52.770;6.892;2024-03-02T13:05:09;13.90;99.90
52889;DHT22;41413;52.770;6.892;2024-03-02T13:07:38;13.90;99.90
52889;DHT22;41413;52.770;6.892;2024-03-02T13:10:06;14.00;99.90
52889;DHT22;41413;52.770;6.892;2024-03-02T13:12:37;14.20;99.90
52889;DHT22;41413;52.770;6.892;2024-03-02T13:15:04;14.20;99.90
52889;DHT22;41413;52.770;6.892;2024-03-02T13:17:34;14.30;99.90
52889;DHT22;41413;52.770;6.892;2024-03-02T13:20:04;14.20;99.90
52889;DHT22;41413;52.770;6.892;2024-03-02T13:22:35;14.10;99.90
52889;DHT22;41413;52.770;6.892;2024-03-02T13:25:02;14.00;99.90
52889;DHT22;41413;52.770;6.892;2024-03-02T13:27:33;14.00;99.90
52889;DHT22;41413;52.770;6.892;2024-03-02T13:30:01;13.90;99.90
52889;DHT22;41413;52.770;6.892;2024-03-02T13:32:28;14.10;99.90
52889;DHT22;41413;52.770;6.892;2024-03-02T13:34:54;14.20;99.90
52889;DHT22;41413;52.770;6.892;2024-03-02T13:37:21;14.10;99.90
52889;DHT22;41413;52.770;6.892;2024-03-02T13:39:48;14.10;99.90
52889;DHT22;41413;52.770;6.892;2024-03-02T13:42:15;14.10;99.90
52889;DHT22;41413;52.770;6.892;2024-03-02T13:44:46;14.30;99.90
52889;DHT22;41413;52.770;6.892;2024-03-02T13:47:17;14.20;99.90
52889;DHT22;41413;52.770;6.892;2024-03-02T13:49:44;14.20;99.90
52889;DHT22;41413;52.770;6.892;2024-03-02T13:52:13;14.20;99.90
52889;DHT22;41413;52.770;6.892;2024-03-02T13:54:41;14.20;99.90
52889;DHT22;41413;52.770;6.892;2024-03-02T13:57:09;14.10;99.90
52889;DHT22;41413;52.770;6.892;2024-03-02T13:59:37;14.10;99.90
52889;DHT22;41413;52.770;6.892;2024-03-02T14:02:07;14.00;99.90
52889;DHT22;41413;52.770;6.892;2024-03-02T14:04:35;14.00;99.90
52889;DHT22;41413;52.770;6.892;2024-03-02T14:07:03;14.00;99.90
52889;DHT22;41413;52.770;6.892;2024-03-02T14:09:30;13.90;99.90
52889;DHT22;41413;52.770;6.892;2024-03-02T14:11:57;13.80;99.90
52889;DHT22;41413;52.770;6.892;2024-03-02T14:14:24;13.80;99.90
52889;DHT22;41413;52.770;6.892;2024-03-02T14:16:52;13.70;99.90
52889;DHT22;41413;52.770;6.892;2024-03-02T14:19:20;13.80;99.90
52889;DHT22;41413;52.770;6.892;2024-03-02T14:21:48;13.80;99.90
52889;DHT22;41413;52.770;6.892;2024-03-02T14:24:15;13.50;99.90
52889;DHT22;41413;52.770;6.892;2024-03-02T14:26:41;13.50;99.90
52889;DHT22;41413;52.770;6.892;2024-03-02T14:29:08;13.50;99.90
52889;DHT22;41413;52.770;6.892;2024-03-02T14:31:35;13.40;99.90
52889;DHT22;41413;52.770;6.892;2024-03-02T14:34:02;13.40;99.90
52889;DHT22;41413;52.770;6.892;2024-03-02T14:36:29;13.40;99.90
52889;DHT22;41413;52.770;6.892;2024-03-02T14:38:57;13.40;99.90
52889;DHT22;41413;52.770;6.892;2024-03-02T14:41:24;13.40;99.90
52889;DHT22;41413;52.770;6.892;2024-03-02T14:43:51;13.30;99.90
52889;DHT22;41413;52.770;6.892;2024-03-02T14:46:19;13.50;99.90
52889;DHT22;41413;52.770;6.892;2024-03-02T14:48:46;13.50;99.90
52889;DHT22;41413;52.770;6.892;2024-03-02T14:51:14;13.50;99.90
52889;DHT22;41413;52.770;6.892;2024-03-02T14:53:41;13.50;99.90
52889;DHT22;41413;52.770;6.892;2024-03-02T14:56:08;13.60;99.90
52889;DHT22;41413;52.770;6.892;2024-03-02T14:58:35;13.60;99.90
52889;DHT22;41413;52.770;6.892;2024-03-02T15:01:03;13.50;99.90
52889;DHT22;41413;52.770;6.892;2024-03-02T15:03:32;13.40;99.90
52889;DHT22;41413;52.770;6.892;2024-03-02T15:05:59;13.60;99.90
52889;DHT22;41413;52.770;6.892;2024-03-02T15:08:26;13.60;99.90
52889;DHT22;41413;52.770;6.892;2024-03-02T15:10:53;13.80;99.90
52889;DHT22;41413;52.770;6.892;2024-03-02T15:13:22;13.70;99.90
52889;DHT22;41413;52.770;6.892;2024-03-02T15:15:49;13.70;99.90
52889;DHT22;41413;52.770;6.892;2024-03-02T15:18:17;13.70;99.90
52889;DHT22;41413;52.770;6.892;2024-03-02T15:20:44;13.80;99.90
52889;DHT22;41413;52.770;6.892;2024-03-02T15:23:11;13.80;99.90
52889;DHT22;41413;52.770;6.892;2024-03-02T15:25:37;13.80;99.90
52889;DHT22;41413;52.770;6.892;2024-03-02T15:28:04;13.70;99.90
52889;DHT22;41413;52.770;6.892;2024-03-02T15:30:31;13.80;99.90
52889;DHT22;41413;52.770;6.892;2024-03-02T15:32:58;13.80;99.90
52889;DHT22;41413;52.770;6.892;2024-03-02T15:35:25;13.80;99.90
52889;DHT22;41413;52.770;6.892;2024-03-02T15:37:52;13.80;99.90
52889;DHT22;41413;52.770;6.892;2024-03-02T15:40:19;13.90;99.90
52889;DHT22;41413;52.770;6.892;2024-03-02T15:42:46;13.90;99.90
52889;DHT22;41413;52.770;6.892;2024-03-02T15:45:13;13.90;99.90
52889;DHT22;41413;52.770;6.892;2024-03-02T15:47:40;13.90;99.90
52889;DHT22;41413;52.770;6.892;2024-03-02T15:50:07;13.90;99.90
52889;DHT22;41413;52.770;6.892;2024-03-02T15:52:34;13.80;99.90
52889;DHT22;41413;52.770;6.892;2024-03-02T15:55:00;13.90;99.90